createdAt,value
2022-11-12T00:01:21.888Z,5.33
2022-11-12T00:07:02.408Z,4.60
2022-11-12T00:12:43.762Z,5.20
2022-11-12T00:18:25.417Z,5.40
2022-11-12T00:24:06.863Z,5.03
2022-11-12T00:29:47.795Z,5.27
2022-11-12T00:35:29.679Z,4.67
2022-11-12T00:41:10.983Z,4.83
2022-11-12T00:46:51.695Z,5.10
2022-11-12T00:52:32.692Z,5.63
2022-11-12T00:58:13.275Z,5.13
2022-11-12T01:03:57.282Z,5.50
2022-11-12T01:09:38.206Z,4.67
2022-11-12T01:15:19.400Z,4.93
2022-11-12T01:21:04.675Z,5.07
2022-11-12T01:26:45.663Z,4.97
2022-11-12T01:32:27.943Z,5.40
2022-11-12T01:38:08.608Z,5.03
2022-11-12T01:44:18.060Z,4.97
2022-11-12T01:50:04.476Z,5.10
2022-11-12T01:55:45.347Z,4.97
2022-11-12T02:01:26.479Z,4.77
2022-11-12T02:07:08.725Z,4.40
2022-11-12T02:13:12.130Z,5.33
2022-11-12T02:18:53.291Z,4.67
2022-11-12T02:24:35.577Z,4.97
2022-11-12T02:30:16.330Z,4.47
2022-11-12T02:35:57.010Z,4.73
2022-11-12T02:41:38.111Z,4.57
2022-11-12T02:47:18.960Z,4.43
2022-11-12T02:52:59.722Z,4.67
2022-11-12T02:58:40.821Z,4.87
2022-11-12T03:04:21.639Z,4.67
2022-11-12T03:10:02.365Z,3.97
2022-11-12T03:15:43.168Z,4.47
2022-11-12T03:21:23.969Z,4.60
2022-11-12T03:27:04.942Z,4.40
2022-11-12T03:32:45.987Z,4.67
2022-11-12T03:38:27.090Z,4.00
2022-11-12T03:44:08.328Z,4.00
2022-11-12T03:49:49.100Z,3.73
2022-11-12T03:55:30.384Z,4.13
2022-11-12T04:01:11.495Z,4.30
2022-11-12T04:07:11.233Z,3.67
2022-11-12T04:13:10.618Z,3.70
2022-11-12T04:19:12.824Z,4.10
2022-11-12T04:25:12.242Z,3.23
2022-11-12T04:30:53.306Z,3.57
2022-11-12T04:36:34.375Z,4.13
2022-11-12T04:42:34.158Z,4.70
2022-11-12T04:48:15.233Z,3.53
2022-11-12T04:53:55.842Z,4.43
2022-11-12T04:59:36.466Z,4.70
2022-11-12T05:05:17.603Z,4.93
2022-11-12T05:10:58.766Z,4.50
2022-11-12T05:16:39.785Z,5.03
2022-11-12T05:22:40.735Z,4.50
2022-11-12T05:28:21.498Z,5.00
2022-11-12T05:34:02.465Z,4.60
2022-11-12T05:39:43.600Z,4.93
2022-11-12T05:45:24.505Z,4.20
2022-11-12T05:51:13.107Z,4.17
2022-11-12T05:56:54.598Z,4.10
2022-11-12T06:02:35.850Z,4.90
2022-11-12T06:08:17.114Z,5.33
2022-11-12T06:13:58.776Z,5.17
2022-11-12T06:19:39.459Z,7.00
2022-11-12T06:25:19.894Z,7.70
2022-11-12T06:31:00.715Z,6.93
2022-11-12T06:36:41.480Z,5.20
2022-11-12T06:42:23.091Z,6.87
2022-11-12T06:48:04.103Z,6.67
2022-11-12T06:53:45.302Z,6.37
2022-11-12T06:59:26.330Z,5.97
2022-11-12T07:05:07.336Z,5.37
2022-11-12T07:10:48.422Z,4.83
2022-11-12T07:16:29.270Z,5.77
2022-11-12T07:22:10.219Z,7.27
2022-11-12T07:27:52.811Z,7.30
2022-11-12T07:33:34.229Z,5.60
2022-11-12T07:39:15.142Z,5.77
2022-11-12T07:44:56.096Z,5.73
2022-11-12T07:50:36.802Z,4.47
2022-11-12T07:56:20.173Z,5.27
2022-11-12T08:02:01.267Z,5.17
2022-11-12T08:07:43.180Z,5.97
2022-11-12T08:13:24.484Z,4.77
2022-11-12T08:19:05.532Z,5.10
2022-11-12T08:24:46.700Z,6.27
2022-11-12T08:30:28.275Z,5.10
2022-11-12T08:36:11.487Z,5.17
2022-11-12T08:41:52.314Z,5.30
2022-11-12T08:47:33.273Z,7.70
2022-11-12T08:53:14.025Z,8.47
2022-11-12T08:58:54.851Z,6.17
2022-11-12T09:04:36.059Z,5.27
2022-11-12T09:10:17.076Z,5.73
2022-11-12T09:16:02.864Z,6.03
2022-11-12T09:21:43.927Z,7.87
2022-11-12T09:27:27.673Z,7.10
2022-11-12T09:33:08.791Z,7.40
2022-11-12T09:38:49.513Z,9.13
2022-11-12T09:44:36.626Z,8.53
2022-11-12T09:50:40.230Z,8.73
2022-11-12T09:56:24.223Z,9.27
2022-11-12T10:02:05.313Z,9.53
2022-11-12T10:08:05.914Z,9.50
2022-11-12T10:14:13.381Z,9.70
2022-11-12T10:20:21.199Z,10.83
2022-11-12T10:26:12.586Z,11.53
2022-11-12T10:31:53.645Z,13.00
2022-11-12T10:38:00.801Z,12.43
2022-11-12T10:43:54.123Z,11.87
2022-11-12T10:49:35.021Z,12.07
2022-11-12T10:55:19.453Z,12.27
2022-11-12T11:01:07.309Z,10.57
2022-11-12T11:06:48.412Z,10.87
2022-11-12T11:12:32.017Z,11.57
2022-11-12T11:18:14.307Z,9.83
2022-11-12T11:24:07.458Z,9.30
2022-11-12T11:29:55.866Z,8.73
2022-11-12T11:35:50.250Z,9.00
2022-11-12T11:42:05.649Z,9.47
2022-11-12T11:48:02.643Z,8.53
2022-11-12T11:54:06.475Z,7.57
2022-11-12T12:00:02.824Z,7.53
2022-11-12T12:05:59.022Z,7.50
2022-11-12T12:11:48.408Z,7.37
2022-11-12T12:18:03.973Z,6.87
2022-11-12T12:23:44.967Z,7.17
2022-11-12T12:29:37.299Z,6.97
2022-11-12T12:35:32.262Z,11.73
2022-11-12T12:41:30.114Z,5.77
2022-11-12T12:47:13.453Z,6.60
2022-11-12T12:53:15.696Z,6.87
2022-11-12T12:59:03.559Z,6.27
2022-11-12T13:04:56.820Z,6.20
2022-11-12T13:10:44.555Z,5.40
2022-11-12T13:17:01.630Z,5.13
2022-11-12T13:22:50.555Z,5.13
2022-11-12T13:28:31.402Z,5.40
2022-11-12T13:34:25.997Z,4.17
2022-11-12T13:40:13.447Z,3.87
2022-11-12T13:46:12.255Z,4.43
2022-11-12T13:51:56.741Z,4.43
2022-11-12T13:57:37.841Z,4.23
2022-11-12T14:03:19.521Z,3.90
2022-11-12T14:09:00.074Z,5.83
2022-11-12T14:15:13.753Z,8.20
2022-11-12T14:20:55.196Z,4.77
2022-11-12T14:26:41.419Z,3.60
2022-11-12T14:32:22.478Z,4.63
2022-11-12T14:38:09.240Z,3.63
2022-11-12T14:44:12.167Z,6.63
2022-11-12T14:49:53.953Z,5.70
2022-11-12T14:55:37.349Z,6.87
2022-11-12T15:07:28.197Z,6.07
2022-11-12T15:13:11.692Z,5.80
2022-11-12T15:19:24.480Z,4.73
2022-11-12T15:25:29.845Z,3.90
2022-11-12T15:31:20.434Z,3.77
2022-11-12T15:37:22.073Z,4.33
2022-11-12T15:43:03.575Z,5.90
2022-11-12T15:48:44.643Z,5.10
2022-11-12T15:54:25.981Z,3.90
2022-11-12T16:00:14.129Z,4.47
2022-11-12T16:05:54.821Z,3.63
2022-11-12T16:11:35.680Z,4.20
2022-11-12T16:17:18.098Z,4.07
2022-11-12T16:22:59.426Z,5.13
2022-11-12T16:28:40.524Z,4.30
2022-11-12T16:34:21.657Z,5.27
2022-11-12T16:40:05.843Z,7.27
2022-11-12T16:45:46.727Z,7.40
2022-11-12T16:51:27.613Z,8.67
2022-11-12T16:57:11.128Z,6.80
2022-11-12T17:02:53.532Z,7.00
2022-11-12T17:08:34.631Z,6.57
2022-11-12T17:14:16.544Z,6.83
2022-11-12T17:19:57.251Z,6.50
2022-11-12T17:25:38.095Z,7.47
2022-11-12T17:31:21.576Z,8.13
2022-11-12T17:37:02.647Z,6.77
2022-11-12T17:42:43.824Z,7.03
2022-11-12T17:48:25.032Z,6.13
2022-11-12T17:54:06.605Z,7.53
2022-11-12T17:59:47.571Z,8.47
2022-11-12T18:05:29.053Z,8.30
2022-11-12T18:11:11.847Z,9.97
2022-11-12T18:16:53.443Z,9.47
2022-11-12T18:22:34.271Z,9.90
2022-11-12T18:28:15.001Z,19.60
2022-11-12T18:33:56.615Z,24.07
2022-11-12T18:39:37.785Z,21.60
2022-11-12T18:45:18.950Z,31.97
2022-11-12T18:51:01.678Z,28.93
2022-11-12T18:56:42.818Z,30.50
2022-11-12T19:02:23.677Z,26.67
2022-11-12T19:08:04.237Z,27.17
2022-11-12T19:13:45.341Z,30.30
2022-11-12T19:19:26.060Z,26.10
2022-11-12T19:25:07.267Z,28.70
2022-11-12T19:30:49.129Z,26.27
2022-11-12T19:36:30.497Z,26.77
2022-11-12T19:42:11.929Z,25.27
2022-11-12T19:47:53.188Z,25.33
2022-11-12T19:53:36.555Z,26.37
2022-11-12T19:59:19.431Z,28.17
2022-11-12T20:05:01.237Z,29.63
2022-11-12T20:10:44.369Z,29.23
2022-11-12T20:16:26.035Z,36.27
2022-11-12T20:22:07.475Z,41.27
2022-11-12T20:27:48.841Z,54.50
2022-11-12T20:33:30.809Z,53.33
2022-11-12T20:39:12.191Z,59.27
2022-11-12T20:44:53.901Z,79.57
2022-11-12T20:50:37.094Z,71.90
2022-11-12T20:56:23.516Z,62.00
2022-11-12T21:02:04.648Z,50.10
2022-11-12T21:07:46.111Z,42.53
2022-11-12T21:13:27.992Z,41.93
2022-11-12T21:19:09.247Z,35.77
2022-11-12T21:24:50.164Z,53.73
2022-11-12T21:30:33.037Z,35.67
2022-11-12T21:36:16.587Z,49.97
2022-11-12T21:41:57.967Z,46.90
2022-11-12T21:47:39.450Z,48.60
2022-11-12T21:53:20.339Z,33.57
2022-11-12T21:59:04.234Z,31.23
2022-11-12T22:04:45.666Z,28.77
2022-11-12T22:10:26.812Z,25.47
2022-11-12T22:16:29.625Z,19.87
2022-11-12T22:22:10.826Z,19.23
2022-11-12T22:27:51.830Z,17.47
2022-11-12T22:33:32.784Z,17.17
2022-11-12T22:39:14.029Z,16.47
2022-11-12T22:44:55.278Z,17.00
2022-11-12T22:50:36.073Z,16.50
2022-11-12T22:56:17.414Z,16.13
2022-11-12T23:01:58.266Z,16.80
2022-11-12T23:07:39.297Z,15.20
2022-11-12T23:13:20.212Z,16.07
2022-11-12T23:19:01.052Z,14.83
2022-11-12T23:24:41.766Z,13.90
2022-11-12T23:30:22.889Z,13.53
2022-11-12T23:36:05.924Z,14.03
2022-11-12T23:41:46.952Z,14.10
2022-11-12T23:47:27.575Z,13.13
2022-11-12T23:53:08.511Z,13.40
2022-11-12T23:58:53.250Z,12.77
